createdAt,value
2022-08-21T00:01:40.817Z,21.23
2022-08-21T00:04:09.244Z,21.26
2022-08-21T00:06:37.438Z,21.29
2022-08-21T00:09:06.935Z,21.33
2022-08-21T00:11:36.085Z,21.36
2022-08-21T00:14:03.961Z,21.40
2022-08-21T00:16:30.831Z,21.44
2022-08-21T00:18:57.423Z,21.46
2022-08-21T00:21:24.072Z,21.49
2022-08-21T00:23:50.853Z,21.53
2022-08-21T00:26:17.457Z,21.53
2022-08-21T00:28:46.684Z,21.55
2022-08-21T00:31:13.867Z,21.56
2022-08-21T00:33:40.505Z,21.57
2022-08-21T00:36:07.377Z,21.56
2022-08-21T00:38:34.218Z,21.56
2022-08-21T00:41:36.881Z,21.55
2022-08-21T00:43:51.370Z,21.53
2022-08-21T00:46:18.064Z,21.51
2022-08-21T00:48:44.723Z,21.49
2022-08-21T00:51:19.668Z,21.42
2022-08-21T00:53:50.649Z,21.40
2022-08-21T00:56:21.994Z,21.36
2022-08-21T00:58:49.869Z,21.31
2022-08-21T01:01:22.150Z,21.27
2022-08-21T01:03:49.283Z,21.24
2022-08-21T01:06:17.717Z,21.20
2022-08-21T01:08:46.798Z,21.19
2022-08-21T01:11:15.581Z,21.19
2022-08-21T01:13:46.926Z,21.20
2022-08-21T01:16:16.566Z,21.20
2022-08-21T01:18:44.123Z,21.21
2022-08-21T01:21:13.013Z,21.21
2022-08-21T01:23:43.039Z,21.20
2022-08-21T01:26:10.368Z,21.20
2022-08-21T01:28:46.808Z,21.17
2022-08-21T01:31:15.991Z,21.18
2022-08-21T01:33:43.552Z,21.17
2022-08-21T01:36:10.645Z,21.17
2022-08-21T01:38:37.267Z,21.17
2022-08-21T01:41:03.845Z,21.17
2022-08-21T01:43:32.418Z,21.17
2022-08-21T01:46:06.156Z,21.18
2022-08-21T01:48:32.842Z,21.19
2022-08-21T01:51:00.325Z,21.18
2022-08-21T01:53:33.318Z,21.18
2022-08-21T01:56:01.033Z,21.17
2022-08-21T01:58:27.746Z,21.15
2022-08-21T02:00:54.614Z,21.14
2022-08-21T02:03:26.356Z,21.11
2022-08-21T02:06:02.912Z,21.07
2022-08-21T02:08:30.104Z,21.05
2022-08-21T02:10:56.718Z,21.03
2022-08-21T02:13:23.280Z,21.03
2022-08-21T02:15:50.112Z,21.03
2022-08-21T02:18:16.802Z,21.01
2022-08-21T02:20:48.678Z,21.00
2022-08-21T02:23:26.804Z,21.01
2022-08-21T02:25:53.938Z,21.01
2022-08-21T02:28:20.503Z,21.00
2022-08-21T02:30:49.191Z,20.98
2022-08-21T02:33:16.485Z,20.98
2022-08-21T02:35:44.708Z,20.94
2022-08-21T02:38:14.086Z,20.91
2022-08-21T02:40:47.968Z,20.88
2022-08-21T02:43:16.351Z,20.86
2022-08-21T02:45:44.782Z,20.81
2022-08-21T02:48:14.597Z,20.78
2022-08-21T02:50:47.672Z,20.72
2022-08-21T02:53:16.643Z,20.69
2022-08-21T02:55:48.346Z,20.70
2022-08-21T02:58:17.649Z,20.65
2022-08-21T03:00:44.810Z,20.61
2022-08-21T03:03:12.868Z,20.59
2022-08-21T03:05:39.509Z,20.56
2022-08-21T03:08:11.332Z,20.54
2022-08-21T03:10:40.837Z,20.54
2022-08-21T03:13:08.242Z,20.54
2022-08-21T03:15:36.096Z,20.54
2022-08-21T03:18:05.676Z,20.53
2022-08-21T03:20:33.569Z,20.53
2022-08-21T03:23:01.210Z,20.52
2022-08-21T03:25:37.980Z,20.53
2022-08-21T03:28:13.420Z,20.52
2022-08-21T03:30:52.203Z,20.47
2022-08-21T03:33:20.425Z,20.51
2022-08-21T03:35:52.892Z,20.48
2022-08-21T03:38:25.852Z,20.48
2022-08-21T03:40:53.377Z,20.47
2022-08-21T03:43:20.299Z,20.44
2022-08-21T03:45:47.087Z,20.43
2022-08-21T03:48:13.899Z,20.41
2022-08-21T03:50:43.383Z,20.37
2022-08-21T03:53:17.295Z,20.37
2022-08-21T03:55:47.595Z,20.35
2022-08-21T03:58:17.499Z,20.33
2022-08-21T04:00:46.783Z,20.33
2022-08-21T04:03:13.542Z,20.32
2022-08-21T04:05:40.239Z,20.31
2022-08-21T04:08:07.760Z,20.29
2022-08-21T04:10:36.503Z,20.26
2022-08-21T04:13:05.034Z,20.22
2022-08-21T04:15:31.731Z,20.21
2022-08-21T04:17:58.327Z,20.17
2022-08-21T04:20:26.042Z,20.14
2022-08-21T04:22:53.498Z,20.10
2022-08-21T04:25:22.253Z,20.07
2022-08-21T04:27:48.919Z,20.04
2022-08-21T04:30:16.535Z,20.03
2022-08-21T04:32:49.674Z,19.99
2022-08-21T04:35:18.798Z,19.98
2022-08-21T04:37:45.540Z,19.95
2022-08-21T04:40:14.813Z,19.91
2022-08-21T04:42:47.564Z,19.88
2022-08-21T04:45:24.055Z,19.84
2022-08-21T04:47:56.190Z,19.85
2022-08-21T04:50:27.498Z,19.84
2022-08-21T04:52:54.567Z,19.83
2022-08-21T04:55:22.427Z,19.79
2022-08-21T04:57:50.934Z,19.78
2022-08-21T05:00:19.968Z,19.78
2022-08-21T05:02:48.719Z,19.76
2022-08-21T05:05:16.988Z,19.74
2022-08-21T05:07:45.529Z,19.74
2022-08-21T05:10:13.807Z,19.75
2022-08-21T05:12:42.998Z,19.75
2022-08-21T05:15:13.434Z,19.77
2022-08-21T05:17:41.845Z,19.78
2022-08-21T05:20:10.373Z,19.79
2022-08-21T05:22:37.115Z,19.80
2022-08-21T05:25:10.244Z,19.82
2022-08-21T05:27:39.596Z,19.81
2022-08-21T05:30:10.691Z,19.80
2022-08-21T05:32:37.602Z,19.82
2022-08-21T05:35:06.971Z,19.82
2022-08-21T05:37:34.392Z,19.84
2022-08-21T05:40:20.792Z,19.85
2022-08-21T05:42:54.696Z,19.87
2022-08-21T05:45:42.176Z,19.88
2022-08-21T05:48:10.879Z,19.93
2022-08-21T05:50:39.648Z,19.93
2022-08-21T05:53:07.761Z,19.92
2022-08-21T05:55:36.476Z,19.92
2022-08-21T05:58:03.408Z,19.92
2022-08-21T06:00:30.051Z,19.95
2022-08-21T06:02:56.896Z,19.96
2022-08-21T06:05:36.383Z,19.96
2022-08-21T06:08:04.139Z,20.00
2022-08-21T06:10:30.838Z,20.02
2022-08-21T06:12:57.590Z,20.04
2022-08-21T06:15:24.362Z,20.07
2022-08-21T06:17:50.964Z,20.10
2022-08-21T06:20:17.550Z,20.15
2022-08-21T06:22:44.164Z,20.18
2022-08-21T06:25:11.242Z,20.20
2022-08-21T06:27:37.989Z,20.22
2022-08-21T06:30:08.413Z,20.24
2022-08-21T06:32:35.820Z,20.28
2022-08-21T06:35:04.962Z,20.31
2022-08-21T06:37:32.218Z,20.36
2022-08-21T06:39:58.839Z,20.40
2022-08-21T06:42:28.289Z,20.44
2022-08-21T06:44:55.264Z,20.48
2022-08-21T06:47:21.894Z,20.52
2022-08-21T06:49:48.482Z,20.55
2022-08-21T06:52:16.859Z,20.60
2022-08-21T06:54:43.792Z,20.63
2022-08-21T06:57:10.361Z,20.66
2022-08-21T06:59:37.054Z,20.72
2022-08-21T07:02:04.592Z,20.76
2022-08-21T07:04:31.325Z,20.80
2022-08-21T07:06:57.874Z,20.85
2022-08-21T07:09:24.972Z,20.88
2022-08-21T07:11:54.206Z,20.93
2022-08-21T07:14:20.821Z,20.99
2022-08-21T07:16:48.472Z,21.04
2022-08-21T07:19:15.237Z,21.08
2022-08-21T07:21:42.047Z,21.13
2022-08-21T07:24:09.023Z,21.19
2022-08-21T07:26:35.885Z,21.23
2022-08-21T07:29:02.559Z,21.26
2022-08-21T07:31:29.761Z,21.29
2022-08-21T07:33:56.520Z,21.29
2022-08-21T07:36:23.811Z,21.30
2022-08-21T07:38:52.672Z,21.32
2022-08-21T07:41:22.681Z,21.33
2022-08-21T07:43:49.755Z,21.37
2022-08-21T07:46:19.858Z,21.41
2022-08-21T07:48:46.495Z,21.45
2022-08-21T07:51:15.556Z,21.51
2022-08-21T07:53:42.763Z,21.56
2022-08-21T07:56:09.809Z,21.60
2022-08-21T07:58:36.497Z,21.65
2022-08-21T08:01:03.455Z,21.69
2022-08-21T08:03:30.224Z,21.74
2022-08-21T08:05:57.900Z,21.78
2022-08-21T08:08:25.560Z,21.82
2022-08-21T08:10:53.766Z,21.87
2022-08-21T08:13:20.393Z,21.91
2022-08-21T08:15:47.087Z,21.96
2022-08-21T08:18:14.898Z,22.00
2022-08-21T08:20:42.225Z,22.05
2022-08-21T08:23:19.733Z,22.07
2022-08-21T08:25:46.337Z,22.16
2022-08-21T08:28:21.297Z,22.20
2022-08-21T08:30:50.283Z,22.26
2022-08-21T08:33:22.164Z,22.31
2022-08-21T08:36:04.658Z,22.38
2022-08-21T08:39:06.053Z,22.44
2022-08-21T08:41:48.406Z,22.58
2022-08-21T08:44:25.384Z,22.67
2022-08-21T08:46:58.602Z,22.74
2022-08-21T08:49:50.673Z,22.78
2022-08-21T08:52:17.172Z,22.92
2022-08-21T08:54:50.268Z,23.00
2022-08-21T08:57:19.955Z,23.12
2022-08-21T08:59:54.243Z,23.21
2022-08-21T09:02:21.980Z,23.30
2022-08-21T09:04:49.664Z,23.40
2022-08-21T09:07:41.188Z,23.46
2022-08-21T09:10:19.340Z,23.59
2022-08-21T09:13:06.239Z,23.69
2022-08-21T09:15:54.379Z,23.81
2022-08-21T09:18:23.928Z,23.93
2022-08-21T09:21:19.180Z,23.99
2022-08-21T09:23:52.224Z,24.07
2022-08-21T09:26:21.697Z,24.12
2022-08-21T09:29:01.726Z,24.14
2022-08-21T09:31:40.118Z,24.20
2022-08-21T09:34:10.979Z,24.32
2022-08-21T09:36:51.511Z,24.40
2022-08-21T09:39:31.785Z,24.55
2022-08-21T09:41:59.986Z,24.72
2022-08-21T09:44:34.496Z,24.81
2022-08-21T09:47:01.609Z,24.93
2022-08-21T09:49:30.596Z,25.01
2022-08-21T09:51:58.539Z,25.07
2022-08-21T09:54:33.615Z,25.18
2022-08-21T09:57:32.240Z,25.29
2022-08-21T10:00:25.543Z,25.38
2022-08-21T10:02:52.077Z,25.47
2022-08-21T10:05:23.934Z,25.56
2022-08-21T10:07:50.963Z,25.62
2022-08-21T10:10:30.419Z,25.66
2022-08-21T10:13:17.669Z,25.76
2022-08-21T10:16:02.771Z,25.86
2022-08-21T10:18:42.423Z,26.00
2022-08-21T10:21:11.879Z,26.11
2022-08-21T10:24:30.504Z,26.14
2022-08-21T10:27:23.298Z,26.24
2022-08-21T10:30:08.064Z,26.31
2022-08-21T10:33:01.039Z,26.38
2022-08-21T10:35:35.092Z,26.46
2022-08-21T10:38:50.459Z,26.48
2022-08-21T10:41:19.735Z,26.54
2022-08-21T10:43:58.291Z,26.46
2022-08-21T10:46:46.599Z,26.45
2022-08-21T10:49:34.268Z,26.40
2022-08-21T10:52:34.447Z,26.49
2022-08-21T10:55:45.574Z,26.64
2022-08-21T10:58:19.467Z,26.89
2022-08-21T11:00:54.646Z,27.15
2022-08-21T11:03:42.178Z,27.50
2022-08-21T11:06:32.790Z,28.01
2022-08-21T11:09:10.531Z,28.63
2022-08-21T11:12:10.858Z,29.30
2022-08-21T11:15:27.053Z,30.00
2022-08-21T11:18:11.316Z,30.52
2022-08-21T11:21:00.219Z,30.88
2022-08-21T11:23:37.359Z,31.30
2022-08-21T11:26:14.538Z,31.73
2022-08-21T11:28:55.407Z,32.22
2022-08-21T11:31:57.109Z,32.68
2022-08-21T11:35:01.258Z,33.12
2022-08-21T11:37:49.840Z,33.50
2022-08-21T11:40:16.423Z,33.86
2022-08-21T11:43:07.830Z,34.12
2022-08-21T11:45:45.456Z,34.47
2022-08-21T11:48:15.021Z,34.79
2022-08-21T11:50:45.088Z,35.06
2022-08-21T11:53:22.179Z,35.28
2022-08-21T11:55:58.124Z,35.54
2022-08-21T11:58:35.815Z,35.80
2022-08-21T12:01:09.749Z,36.10
2022-08-21T12:03:45.895Z,36.35
2022-08-21T12:06:24.225Z,36.57
2022-08-21T12:09:00.419Z,36.69
2022-08-21T12:11:30.518Z,36.84
2022-08-21T12:14:14.424Z,36.87
2022-08-21T12:16:47.530Z,36.97
2022-08-21T12:19:30.510Z,36.99
2022-08-21T12:22:06.311Z,37.04
2022-08-21T12:24:47.902Z,37.13
2022-08-21T12:27:26.588Z,37.20
2022-08-21T12:29:57.558Z,37.26
2022-08-21T12:32:45.680Z,37.31
2022-08-21T12:35:24.776Z,37.44
2022-08-21T12:38:13.497Z,37.62
2022-08-21T12:40:44.030Z,37.91
2022-08-21T12:43:22.682Z,38.00
2022-08-21T12:45:51.950Z,37.97
2022-08-21T12:48:27.385Z,37.65
2022-08-21T12:51:08.196Z,37.25
2022-08-21T12:53:48.642Z,36.73
2022-08-21T12:56:21.662Z,36.32
2022-08-21T12:58:52.469Z,36.10
2022-08-21T13:01:29.289Z,35.99
2022-08-21T13:04:04.300Z,36.06
2022-08-21T13:06:38.546Z,36.13
2022-08-21T13:09:07.699Z,36.16
2022-08-21T13:11:34.990Z,36.16
2022-08-21T13:14:04.942Z,36.12
2022-08-21T13:16:36.176Z,36.04
2022-08-21T13:19:12.966Z,35.93
2022-08-21T13:21:49.732Z,35.82
2022-08-21T13:24:41.753Z,35.62
2022-08-21T13:27:28.017Z,35.51
2022-08-21T13:30:10.646Z,35.40
2022-08-21T13:32:42.501Z,35.30
2022-08-21T13:35:27.215Z,35.14
2022-08-21T13:37:56.599Z,35.09
2022-08-21T13:40:33.824Z,34.95
2022-08-21T13:43:01.528Z,34.92
2022-08-21T13:45:33.821Z,34.92
2022-08-21T13:48:06.623Z,35.01
2022-08-21T13:50:36.761Z,35.10
2022-08-21T13:53:08.915Z,35.13
2022-08-21T13:55:44.712Z,35.13
2022-08-21T13:58:12.871Z,35.15
2022-08-21T14:00:49.756Z,35.08
2022-08-21T14:03:34.795Z,35.01
2022-08-21T14:06:03.785Z,35.02
2022-08-21T14:08:37.757Z,34.96
2022-08-21T14:11:12.944Z,34.93
2022-08-21T14:13:47.605Z,34.87
2022-08-21T14:16:26.686Z,34.77
2022-08-21T14:19:04.169Z,34.72
2022-08-21T14:21:38.208Z,34.73
2022-08-21T14:24:09.891Z,34.81
2022-08-21T14:26:45.292Z,34.91
2022-08-21T14:29:16.426Z,35.04
2022-08-21T14:31:44.177Z,35.21
2022-08-21T14:34:19.118Z,35.34
2022-08-21T14:36:46.627Z,35.53
2022-08-21T14:39:13.256Z,35.68
2022-08-21T14:41:40.174Z,35.86
2022-08-21T14:44:09.600Z,36.02
2022-08-21T14:46:43.959Z,36.15
2022-08-21T14:49:24.274Z,36.18
2022-08-21T14:51:57.749Z,36.13
2022-08-21T14:54:30.896Z,36.02
2022-08-21T14:57:01.648Z,35.92
2022-08-21T14:59:28.611Z,35.89
2022-08-21T15:01:55.203Z,35.89
2022-08-21T15:04:21.747Z,35.98
2022-08-21T15:06:48.326Z,36.15
2022-08-21T15:09:14.885Z,36.43
2022-08-21T15:11:43.187Z,36.75
2022-08-21T15:14:16.661Z,37.11
2022-08-21T15:16:43.274Z,37.49
2022-08-21T15:19:09.824Z,37.86
2022-08-21T15:21:36.409Z,38.19
2022-08-21T15:24:03.306Z,38.49
2022-08-21T15:26:30.022Z,38.70
2022-08-21T15:28:56.580Z,38.85
2022-08-21T15:31:23.148Z,38.93
2022-08-21T15:33:49.680Z,39.01
2022-08-21T15:36:16.276Z,39.08
2022-08-21T15:38:42.855Z,39.16
2022-08-21T15:41:09.564Z,39.18
2022-08-21T15:43:56.692Z,39.01
2022-08-21T15:46:23.460Z,38.88
2022-08-21T15:48:50.061Z,38.66
2022-08-21T15:51:17.718Z,38.49
2022-08-21T15:53:45.468Z,38.37
2022-08-21T15:56:24.379Z,38.21
2022-08-21T15:58:53.285Z,38.12
2022-08-21T16:01:21.694Z,38.01
2022-08-21T16:03:51.480Z,37.93
2022-08-21T16:06:18.061Z,37.88
2022-08-21T16:09:04.434Z,37.79
2022-08-21T16:11:31.082Z,37.63
2022-08-21T16:13:57.768Z,37.36
2022-08-21T16:16:25.234Z,37.00
2022-08-21T16:18:52.647Z,36.65
2022-08-21T16:21:19.744Z,36.34
2022-08-21T16:23:46.468Z,36.15
2022-08-21T16:26:16.007Z,36.00
2022-08-21T16:28:46.502Z,35.92
2022-08-21T16:31:15.467Z,35.85
2022-08-21T16:33:58.087Z,35.70
2022-08-21T16:36:26.400Z,35.58
2022-08-21T16:38:54.782Z,35.33
2022-08-21T16:41:23.437Z,35.08
2022-08-21T16:43:51.877Z,34.77
2022-08-21T16:46:20.672Z,34.47
2022-08-21T16:48:47.604Z,34.15
2022-08-21T16:51:15.549Z,33.84
2022-08-21T16:53:43.667Z,33.52
2022-08-21T16:56:12.486Z,33.23
2022-08-21T16:58:42.677Z,32.93
2022-08-21T17:01:12.721Z,32.65
2022-08-21T17:03:42.621Z,32.38
2022-08-21T17:06:10.165Z,32.14
2022-08-21T17:08:37.110Z,31.91
2022-08-21T17:11:07.559Z,31.68
2022-08-21T17:13:35.166Z,31.48
2022-08-21T17:16:01.829Z,31.29
2022-08-21T17:18:28.408Z,31.14
2022-08-21T17:20:55.165Z,30.96
2022-08-21T17:23:21.854Z,30.83
2022-08-21T17:25:52.903Z,30.65
2022-08-21T17:28:25.817Z,30.50
2022-08-21T17:30:58.795Z,30.36
2022-08-21T17:33:27.435Z,30.26
2022-08-21T17:35:54.148Z,30.15
2022-08-21T17:38:20.852Z,30.04
2022-08-21T17:40:48.679Z,29.93
2022-08-21T17:43:15.863Z,29.82
2022-08-21T17:45:44.521Z,29.70
2022-08-21T17:48:11.499Z,29.60
2022-08-21T17:50:39.219Z,29.49
2022-08-21T17:53:05.818Z,29.38
2022-08-21T17:55:34.013Z,29.26
2022-08-21T17:58:02.350Z,29.16
2022-08-21T18:00:29.801Z,29.04
2022-08-21T18:03:15.124Z,28.93
2022-08-21T18:05:47.082Z,28.82
2022-08-21T18:08:14.994Z,28.75
2022-08-21T18:10:45.465Z,28.67
2022-08-21T18:13:15.742Z,28.58
2022-08-21T18:15:50.106Z,28.50
2022-08-21T18:18:17.204Z,28.44
2022-08-21T18:20:43.893Z,28.36
2022-08-21T18:23:10.786Z,28.29
2022-08-21T18:25:37.405Z,28.22
2022-08-21T18:28:06.932Z,28.14
2022-08-21T18:30:38.611Z,28.05
2022-08-21T18:33:05.592Z,27.99
2022-08-21T18:35:32.682Z,27.91
2022-08-21T18:37:59.368Z,27.82
2022-08-21T18:40:26.281Z,27.76
2022-08-21T18:42:55.817Z,27.69
2022-08-21T18:45:23.698Z,27.63
2022-08-21T18:47:55.885Z,27.54
2022-08-21T18:50:26.564Z,27.51
2022-08-21T18:52:54.476Z,27.46
2022-08-21T18:55:24.549Z,27.39
2022-08-21T18:57:51.743Z,27.36
2022-08-21T19:00:23.555Z,27.28
2022-08-21T19:02:51.428Z,27.23
2022-08-21T19:05:18.883Z,27.14
2022-08-21T19:07:46.125Z,27.05
2022-08-21T19:10:31.157Z,26.96
2022-08-21T19:12:59.692Z,26.83
2022-08-21T19:15:27.097Z,26.71
2022-08-21T19:17:56.334Z,26.61
2022-08-21T19:20:31.596Z,26.47
2022-08-21T19:22:58.358Z,26.40
2022-08-21T19:25:33.446Z,26.31
2022-08-21T19:28:01.804Z,26.23
2022-08-21T19:30:28.854Z,26.12
2022-08-21T19:32:55.678Z,26.01
2022-08-21T19:35:23.243Z,25.92
2022-08-21T19:37:49.883Z,25.82
2022-08-21T19:40:19.215Z,25.71
2022-08-21T19:42:49.155Z,25.60
2022-08-21T19:45:15.840Z,25.53
2022-08-21T19:47:47.194Z,25.42
2022-08-21T19:50:17.787Z,25.35
2022-08-21T19:52:55.674Z,25.28
2022-08-21T19:58:22.645Z,25.09
2022-08-21T20:00:49.439Z,25.05
2022-08-21T20:03:17.888Z,24.98
2022-08-21T20:05:48.054Z,24.92
2022-08-21T20:08:20.171Z,24.86
2022-08-21T20:10:47.715Z,24.79
2022-08-21T20:13:18.083Z,24.71
2022-08-21T20:15:45.609Z,24.66
2022-08-21T20:18:12.253Z,24.59
2022-08-21T20:20:38.840Z,24.53
2022-08-21T20:23:10.898Z,24.46
2022-08-21T20:25:39.402Z,24.38
2022-08-21T20:28:06.811Z,24.32
2022-08-21T20:30:34.889Z,24.27
2022-08-21T20:33:01.595Z,24.22
2022-08-21T20:35:28.428Z,24.18
2022-08-21T20:40:43.658Z,24.13
2022-08-21T20:43:12.816Z,24.07
2022-08-21T20:45:40.823Z,24.03
2022-08-21T20:48:19.293Z,23.98
2022-08-21T20:50:55.271Z,23.91
2022-08-21T20:53:53.880Z,23.82
2022-08-21T20:56:35.177Z,23.80
2022-08-21T20:59:16.529Z,23.74
2022-08-21T21:01:47.842Z,23.69
2022-08-21T21:04:36.848Z,23.59
2022-08-21T21:07:09.261Z,23.58
2022-08-21T21:09:42.189Z,23.52
2022-08-21T21:12:27.889Z,23.48
2022-08-21T21:14:59.602Z,23.46
2022-08-21T21:20:34.996Z,23.38
2022-08-21T21:23:16.533Z,23.34
2022-08-21T21:26:05.448Z,23.31
2022-08-21T21:29:10.611Z,23.26
2022-08-21T21:31:37.787Z,23.27
2022-08-21T21:34:04.669Z,23.22
2022-08-21T21:36:56.022Z,23.12
2022-08-21T21:39:41.602Z,23.13
2022-08-21T21:42:41.589Z,23.03
2022-08-21T21:45:25.881Z,23.01
2022-08-21T21:47:58.584Z,23.02
2022-08-21T21:50:51.484Z,22.96
2022-08-21T21:53:26.447Z,22.96
2022-08-21T21:56:27.552Z,22.88
2022-08-21T21:59:13.098Z,22.80
2022-08-21T22:01:55.976Z,22.77
2022-08-21T22:04:31.740Z,22.75
2022-08-21T22:07:37.576Z,22.67
2022-08-21T22:13:10.076Z,22.64
2022-08-21T22:15:37.881Z,22.59
2022-08-21T22:18:21.469Z,22.53
2022-08-21T22:21:03.498Z,22.47
2022-08-21T22:23:42.346Z,22.47
2022-08-21T22:26:13.641Z,22.47
2022-08-21T22:28:43.824Z,22.44
2022-08-21T22:31:13.153Z,22.41
2022-08-21T22:33:41.381Z,22.43
2022-08-21T22:36:20.741Z,22.36
2022-08-21T22:38:47.361Z,22.40
2022-08-21T22:41:18.052Z,22.40
2022-08-21T22:43:56.449Z,22.37
2022-08-21T22:46:36.737Z,22.34
2022-08-21T22:49:08.956Z,22.36
2022-08-21T22:51:40.500Z,22.35
2022-08-21T22:54:16.779Z,22.32
2022-08-21T22:57:03.552Z,22.27
2022-08-21T22:59:41.693Z,22.24
2022-08-21T23:02:37.196Z,22.21
2022-08-21T23:05:17.294Z,22.24
2022-08-21T23:07:49.902Z,22.24
2022-08-21T23:10:34.175Z,22.20
2022-08-21T23:13:09.172Z,22.21
2022-08-21T23:15:53.079Z,22.17
2022-08-21T23:18:37.898Z,22.16
2022-08-21T23:21:20.974Z,22.15
2022-08-21T23:24:29.436Z,22.08
2022-08-21T23:27:20.771Z,22.06
2022-08-21T23:29:54.899Z,22.06
2022-08-21T23:32:40.711Z,22.06
2022-08-21T23:35:47.517Z,22.03
2022-08-21T23:38:28.944Z,22.05
2022-08-21T23:41:03.909Z,22.05
2022-08-21T23:43:47.311Z,22.04
2022-08-21T23:46:34.724Z,22.08
2022-08-21T23:49:06.734Z,22.04
2022-08-21T23:51:57.373Z,22.01
2022-08-21T23:54:30.005Z,21.99
2022-08-21T23:57:11.460Z,21.97
2022-08-21T23:59:40.701Z,21.99
